This is the latest recevied weather packets stored in our database for station/object GW1480. If no packets are shown the sender has not sent any weather packets the latest 10 day(s).
| Time | Temp. | Humidity | Pressure | Rain* | Wind** | Luminosity | Snow |
|---|---|---|---|---|---|---|---|
| 1777972872 | 15° C | 79% | 1013.5 hPa | 0 mm | - | - | - |
| 1777972173 | 15.56° C | 79% | 1013.2 hPa | 0 mm | - | - | - |
| 1777971810 | 15.56° C | 75% | 1013.5 hPa | 0 mm | - | - | - |
| 1777970370 | 16.67° C | 72% | 1013.2 hPa | 0 mm | - | - | - |
| 1777967849 | 16.11° C | 70% | 1013.2 hPa | 0 mm | - | - | - |
| 1777967471 | 16.67° C | 72% | 1013.2 hPa | 0 mm | - | - | - |
| 1777966779 | 16.11° C | 75% | 1012.8 hPa | 0 mm | - | - | - |
| 1777959570 | 12.22° C | 91% | 1012.8 hPa | 0 mm | - | - | - |
| 1777959189 | 12.22° C | 92% | 1012.8 hPa | 0 mm | - | - | - |
| 1777958137 | 12.22° C | 92% | 1012.8 hPa | 0 mm | - | - | - |
| 1777949863 | 13.89° C | 90% | 1012.1 hPa | 0.25 mm | - | - | - |
| 1777946966 | 14.44° C | 89% | 1011.8 hPa | 0.25 mm | - | - | - |
| 1777946597 | 14.44° C | 88% | 1011.8 hPa | 0.25 mm | - | - | - |
| 1777945158 | 15.56° C | 86% | 1011.8 hPa | 0.25 mm | - | - | - |
| 1777943736 | 16.67° C | 83% | 1011.8 hPa | 0.25 mm | - | - | - |
| 1777943011 | 16.67° C | 82% | 1011.8 hPa | 0.25 mm | - | - | - |
| 1777940113 | 20.56° C | 75% | 1011.8 hPa | 0.25 mm | - | - | - |
| 1777939035 | 22.78° C | 74% | 1011.5 hPa | 0.25 mm | - | - | - |
| 1777937621 | 25° C | 56% | 1011.5 hPa | 0.25 mm | - | - | - |
| 1777935107 | 25° C | 57% | 1011.5 hPa | 0.25 mm | - | - | - |
| 1777934376 | 25.56° C | 47% | 1011.8 hPa | 0.25 mm | - | - | - |
| 1777933996 | 25.56° C | 55% | 1011.8 hPa | 0.25 mm | - | - | - |
| 1777932196 | 26.67° C | 46% | 1011.8 hPa | 0.25 mm | - | - | - |
| 1777929328 | 25.56° C | 50% | 1012.1 hPa | 0.25 mm | - | - | - |
| 1777928990 | 25° C | 51% | 1012.1 hPa | 0.25 mm | - | - | - |
* Rain since midnight (hover to see other rain measurements)
** Current wind speed in m/s (hover to see current wind gust speed)